Terminal Aerodrome Forecast
Issued by NWS

Home | Current Version | Previous Version | Text Only | Print | Product List | Glossary On
Versions: 1 2 3 4 5 6 7 8 9 10 11 12 13 14
779
FTUS44 KEPZ 022320
TAFTCS
TAF
KTCS 022320Z 0300/0324 06010KT P6SM SCT050 BKN100 BKN200
     FM030400 03013G23KT P6SM VCSH FEW030 BKN050 OVC100
     FM030900 03018G28KT P6SM -SHRASN SCT030 OVC080
     FM031200 02020G30KT 5SM -RASN SCT020 BKN030 OVC060
     FM031500 05015G25KT 3SM -SHRA FEW005 BKN020 OVC040=

USA.gov is the U.S. government's official web portal to all federal, state and local government web resources and services.